sensor_id;sensor_type;location;lat;lon;timestamp;P1;durP1;ratioP1;P2;durP2;ratioP2
60999;SDS011;46879;45.658;11.814;2022-08-03T00:04:28;6.20;;;1.23;;
60999;SDS011;46879;45.658;11.814;2022-08-03T00:09:29;2.22;;;1.10;;
60999;SDS011;46879;45.658;11.814;2022-08-03T00:14:30;8.65;;;1.10;;
60999;SDS011;46879;45.658;11.814;2022-08-03T00:19:30;2.90;;;1.27;;
60999;SDS011;46879;45.658;11.814;2022-08-03T00:24:31;2.60;;;1.30;;
60999;SDS011;46879;45.658;11.814;2022-08-03T00:29:31;2.15;;;1.17;;
60999;SDS011;46879;45.658;11.814;2022-08-03T00:34:32;1.60;;;1.10;;
60999;SDS011;46879;45.658;11.814;2022-08-03T00:39:32;1.77;;;1.02;;
60999;SDS011;46879;45.658;11.814;2022-08-03T00:44:40;3.47;;;1.50;;
60999;SDS011;46879;45.658;11.814;2022-08-03T00:49:41;0.85;;;0.85;;
60999;SDS011;46879;45.658;11.814;2022-08-03T00:54:42;1.15;;;1.02;;
60999;SDS011;46879;45.658;11.814;2022-08-03T00:59:43;2.47;;;1.33;;
60999;SDS011;46879;45.658;11.814;2022-08-03T01:04:43;5.00;;;1.33;;
60999;SDS011;46879;45.658;11.814;2022-08-03T01:10:00;1.95;;;0.95;;
60999;SDS011;46879;45.658;11.814;2022-08-03T01:15:43;1.05;;;0.90;;
60999;SDS011;46879;45.658;11.814;2022-08-03T01:20:59;4.80;;;1.55;;
60999;SDS011;46879;45.658;11.814;2022-08-03T01:26:18;4.57;;;1.52;;
60999;SDS011;46879;45.658;11.814;2022-08-03T01:32:24;4.57;;;1.50;;
60999;SDS011;46879;45.658;11.814;2022-08-03T01:37:37;1.08;;;0.98;;
60999;SDS011;46879;45.658;11.814;2022-08-03T01:42:52;2.35;;;1.02;;
60999;SDS011;46879;45.658;11.814;2022-08-03T01:47:56;2.88;;;1.30;;
60999;SDS011;46879;45.658;11.814;2022-08-03T01:52:57;3.03;;;1.00;;
60999;SDS011;46879;45.658;11.814;2022-08-03T01:57:59;4.13;;;1.42;;
60999;SDS011;46879;45.658;11.814;2022-08-03T02:03:06;2.65;;;1.45;;
60999;SDS011;46879;45.658;11.814;2022-08-03T02:08:09;3.25;;;1.23;;
60999;SDS011;46879;45.658;11.814;2022-08-03T02:13:12;4.65;;;1.20;;
60999;SDS011;46879;45.658;11.814;2022-08-03T02:18:16;8.63;;;1.20;;
60999;SDS011;46879;45.658;11.814;2022-08-03T02:23:18;2.90;;;1.30;;
60999;SDS011;46879;45.658;11.814;2022-08-03T02:28:19;3.72;;;1.30;;
60999;SDS011;46879;45.658;11.814;2022-08-03T02:33:24;2.72;;;1.10;;
60999;SDS011;46879;45.658;11.814;2022-08-03T02:38:32;3.73;;;1.30;;
60999;SDS011;46879;45.658;11.814;2022-08-03T02:43:35;1.05;;;0.95;;
60999;SDS011;46879;45.658;11.814;2022-08-03T02:48:39;2.15;;;1.38;;
60999;SDS011;46879;45.658;11.814;2022-08-03T02:53:42;2.15;;;1.30;;
60999;SDS011;46879;45.658;11.814;2022-08-03T02:58:44;2.88;;;1.20;;
60999;SDS011;46879;45.658;11.814;2022-08-03T03:03:48;7.47;;;1.27;;
60999;SDS011;46879;45.658;11.814;2022-08-03T03:08:51;3.30;;;1.30;;
60999;SDS011;46879;45.658;11.814;2022-08-03T03:13:53;4.47;;;1.38;;
60999;SDS011;46879;45.658;11.814;2022-08-03T03:18:56;2.95;;;1.25;;
60999;SDS011;46879;45.658;11.814;2022-08-03T03:23:57;2.80;;;1.35;;
60999;SDS011;46879;45.658;11.814;2022-08-03T03:29:00;5.88;;;1.65;;
60999;SDS011;46879;45.658;11.814;2022-08-03T03:34:01;5.35;;;2.17;;
60999;SDS011;46879;45.658;11.814;2022-08-03T03:39:02;7.55;;;1.70;;
60999;SDS011;46879;45.658;11.814;2022-08-03T03:44:03;4.50;;;1.75;;
60999;SDS011;46879;45.658;11.814;2022-08-03T03:49:04;1.65;;;1.40;;
60999;SDS011;46879;45.658;11.814;2022-08-03T03:54:09;3.17;;;1.63;;
60999;SDS011;46879;45.658;11.814;2022-08-03T03:59:09;3.85;;;1.40;;
60999;SDS011;46879;45.658;11.814;2022-08-03T04:04:10;4.78;;;1.52;;
60999;SDS011;46879;45.658;11.814;2022-08-03T04:09:29;3.05;;;1.70;;
60999;SDS011;46879;45.658;11.814;2022-08-03T04:14:50;3.55;;;1.75;;
60999;SDS011;46879;45.658;11.814;2022-08-03T04:19:54;3.05;;;1.60;;
60999;SDS011;46879;45.658;11.814;2022-08-03T04:25:00;6.32;;;1.30;;
60999;SDS011;46879;45.658;11.814;2022-08-03T04:30:08;4.18;;;1.60;;
60999;SDS011;46879;45.658;11.814;2022-08-03T04:35:09;6.25;;;1.58;;
60999;SDS011;46879;45.658;11.814;2022-08-03T04:40:12;3.13;;;1.50;;
60999;SDS011;46879;45.658;11.814;2022-08-03T04:45:17;2.47;;;1.33;;
60999;SDS011;46879;45.658;11.814;2022-08-03T04:50:20;7.75;;;1.80;;
60999;SDS011;46879;45.658;11.814;2022-08-03T04:55:25;6.70;;;1.83;;
60999;SDS011;46879;45.658;11.814;2022-08-03T05:00:27;2.00;;;1.20;;
60999;SDS011;46879;45.658;11.814;2022-08-03T05:05:28;3.47;;;1.38;;
60999;SDS011;46879;45.658;11.814;2022-08-03T05:10:29;1.38;;;1.10;;
60999;SDS011;46879;45.658;11.814;2022-08-03T05:15:29;2.97;;;1.42;;
60999;SDS011;46879;45.658;11.814;2022-08-03T05:20:30;2.20;;;1.48;;
60999;SDS011;46879;45.658;11.814;2022-08-03T05:25:31;1.10;;;1.00;;
60999;SDS011;46879;45.658;11.814;2022-08-03T05:30:31;2.10;;;1.33;;
60999;SDS011;46879;45.658;11.814;2022-08-03T05:35:32;3.35;;;1.38;;
60999;SDS011;46879;45.658;11.814;2022-08-03T05:40:34;1.60;;;1.38;;
60999;SDS011;46879;45.658;11.814;2022-08-03T05:45:35;1.90;;;1.15;;
60999;SDS011;46879;45.658;11.814;2022-08-03T05:50:37;3.35;;;1.60;;
60999;SDS011;46879;45.658;11.814;2022-08-03T05:55:37;2.38;;;1.40;;
60999;SDS011;46879;45.658;11.814;2022-08-03T06:00:38;4.40;;;1.65;;
60999;SDS011;46879;45.658;11.814;2022-08-03T06:05:39;3.17;;;1.60;;
60999;SDS011;46879;45.658;11.814;2022-08-03T06:10:39;24.00;;;1.83;;
60999;SDS011;46879;45.658;11.814;2022-08-03T06:15:40;10.70;;;2.13;;
60999;SDS011;46879;45.658;11.814;2022-08-03T06:20:41;6.93;;;1.55;;
60999;SDS011;46879;45.658;11.814;2022-08-03T06:25:41;5.55;;;1.40;;
60999;SDS011;46879;45.658;11.814;2022-08-03T06:30:43;3.67;;;1.45;;
60999;SDS011;46879;45.658;11.814;2022-08-03T06:35:44;5.32;;;1.38;;
60999;SDS011;46879;45.658;11.814;2022-08-03T06:40:45;4.88;;;1.65;;
60999;SDS011;46879;45.658;11.814;2022-08-03T06:45:45;2.55;;;1.48;;
60999;SDS011;46879;45.658;11.814;2022-08-03T06:50:46;3.90;;;1.30;;
60999;SDS011;46879;45.658;11.814;2022-08-03T06:55:47;3.42;;;1.35;;
60999;SDS011;46879;45.658;11.814;2022-08-03T07:00:47;3.05;;;1.50;;
60999;SDS011;46879;45.658;11.814;2022-08-03T07:05:48;2.42;;;1.55;;
60999;SDS011;46879;45.658;11.814;2022-08-03T07:10:50;2.78;;;1.58;;
60999;SDS011;46879;45.658;11.814;2022-08-03T07:15:50;4.60;;;1.60;;
60999;SDS011;46879;45.658;11.814;2022-08-03T07:20:51;9.93;;;2.08;;
60999;SDS011;46879;45.658;11.814;2022-08-03T07:25:51;4.90;;;1.73;;
60999;SDS011;46879;45.658;11.814;2022-08-03T07:30:52;6.70;;;2.13;;
60999;SDS011;46879;45.658;11.814;2022-08-03T07:35:53;4.00;;;1.70;;
60999;SDS011;46879;45.658;11.814;2022-08-03T07:40:53;4.63;;;1.70;;
60999;SDS011;46879;45.658;11.814;2022-08-03T07:45:54;7.25;;;1.50;;
60999;SDS011;46879;45.658;11.814;2022-08-03T07:50:54;9.95;;;2.08;;
60999;SDS011;46879;45.658;11.814;2022-08-03T07:55:55;10.73;;;2.30;;
60999;SDS011;46879;45.658;11.814;2022-08-03T08:00:56;10.20;;;2.20;;
60999;SDS011;46879;45.658;11.814;2022-08-03T08:05:56;4.85;;;1.75;;
60999;SDS011;46879;45.658;11.814;2022-08-03T08:10:57;7.10;;;2.20;;
60999;SDS011;46879;45.658;11.814;2022-08-03T08:15:58;9.48;;;2.20;;
60999;SDS011;46879;45.658;11.814;2022-08-03T08:20:58;8.65;;;2.10;;
60999;SDS011;46879;45.658;11.814;2022-08-03T08:26:00;7.60;;;1.90;;
60999;SDS011;46879;45.658;11.814;2022-08-03T08:31:01;11.88;;;2.90;;
60999;SDS011;46879;45.658;11.814;2022-08-03T08:36:01;7.22;;;2.20;;
60999;SDS011;46879;45.658;11.814;2022-08-03T08:41:02;11.98;;;2.25;;
60999;SDS011;46879;45.658;11.814;2022-08-03T08:46:03;13.27;;;2.50;;
60999;SDS011;46879;45.658;11.814;2022-08-03T08:51:07;12.48;;;2.60;;
60999;SDS011;46879;45.658;11.814;2022-08-03T08:56:11;11.82;;;2.20;;
60999;SDS011;46879;45.658;11.814;2022-08-03T09:01:19;7.80;;;2.13;;
60999;SDS011;46879;45.658;11.814;2022-08-03T09:06:21;6.95;;;2.20;;
60999;SDS011;46879;45.658;11.814;2022-08-03T09:11:22;6.97;;;2.22;;
60999;SDS011;46879;45.658;11.814;2022-08-03T09:16:23;3.80;;;1.80;;
60999;SDS011;46879;45.658;11.814;2022-08-03T09:21:24;10.43;;;2.63;;
60999;SDS011;46879;45.658;11.814;2022-08-03T09:26:30;8.02;;;2.00;;
60999;SDS011;46879;45.658;11.814;2022-08-03T09:31:34;8.38;;;2.25;;
60999;SDS011;46879;45.658;11.814;2022-08-03T09:36:46;5.55;;;1.90;;
60999;SDS011;46879;45.658;11.814;2022-08-03T09:47:12;6.13;;;2.15;;
60999;SDS011;46879;45.658;11.814;2022-08-03T09:52:15;7.07;;;2.00;;
60999;SDS011;46879;45.658;11.814;2022-08-03T09:57:24;5.05;;;1.92;;
60999;SDS011;46879;45.658;11.814;2022-08-03T10:02:26;10.80;;;2.40;;
60999;SDS011;46879;45.658;11.814;2022-08-03T10:07:27;6.35;;;2.05;;
60999;SDS011;46879;45.658;11.814;2022-08-03T10:12:27;4.35;;;2.17;;
60999;SDS011;46879;45.658;11.814;2022-08-03T10:17:28;7.90;;;2.30;;
60999;SDS011;46879;45.658;11.814;2022-08-03T10:22:31;10.32;;;2.88;;
60999;SDS011;46879;45.658;11.814;2022-08-03T10:27:38;7.43;;;2.17;;
60999;SDS011;46879;45.658;11.814;2022-08-03T10:37:50;6.40;;;2.25;;
60999;SDS011;46879;45.658;11.814;2022-08-03T10:43:07;6.15;;;2.20;;
60999;SDS011;46879;45.658;11.814;2022-08-03T10:48:10;4.00;;;2.38;;
60999;SDS011;46879;45.658;11.814;2022-08-03T10:53:12;7.13;;;2.00;;
60999;SDS011;46879;45.658;11.814;2022-08-03T10:58:12;6.82;;;2.00;;
60999;SDS011;46879;45.658;11.814;2022-08-03T11:03:13;4.95;;;2.33;;
60999;SDS011;46879;45.658;11.814;2022-08-03T11:08:30;3.83;;;2.10;;
60999;SDS011;46879;45.658;11.814;2022-08-03T11:13:35;3.10;;;1.90;;
60999;SDS011;46879;45.658;11.814;2022-08-03T11:18:36;2.17;;;1.83;;
60999;SDS011;46879;45.658;11.814;2022-08-03T11:23:55;6.22;;;1.85;;
60999;SDS011;46879;45.658;11.814;2022-08-03T11:29:09;4.20;;;2.10;;
60999;SDS011;46879;45.658;11.814;2022-08-03T11:40:32;4.07;;;1.70;;
60999;SDS011;46879;45.658;11.814;2022-08-03T11:51:06;2.40;;;1.73;;
60999;SDS011;46879;45.658;11.814;2022-08-03T11:56:21;2.78;;;2.10;;
60999;SDS011;46879;45.658;11.814;2022-08-03T12:01:23;2.95;;;1.75;;
60999;SDS011;46879;45.658;11.814;2022-08-03T12:06:24;3.15;;;1.95;;
60999;SDS011;46879;45.658;11.814;2022-08-03T12:11:24;3.00;;;1.65;;
60999;SDS011;46879;45.658;11.814;2022-08-03T12:16:25;3.30;;;1.50;;
60999;SDS011;46879;45.658;11.814;2022-08-03T12:21:27;4.22;;;1.70;;
60999;SDS011;46879;45.658;11.814;2022-08-03T12:26:29;2.53;;;1.52;;
60999;SDS011;46879;45.658;11.814;2022-08-03T12:31:48;1.98;;;1.63;;
60999;SDS011;46879;45.658;11.814;2022-08-03T12:36:49;4.63;;;1.67;;
60999;SDS011;46879;45.658;11.814;2022-08-03T12:41:52;2.83;;;1.88;;
60999;SDS011;46879;45.658;11.814;2022-08-03T12:46:56;7.38;;;1.75;;
60999;SDS011;46879;45.658;11.814;2022-08-03T12:51:58;3.35;;;1.73;;
60999;SDS011;46879;45.658;11.814;2022-08-03T12:56:59;7.65;;;2.00;;
60999;SDS011;46879;45.658;11.814;2022-08-03T13:02:16;2.95;;;2.10;;
60999;SDS011;46879;45.658;11.814;2022-08-03T13:07:21;2.95;;;1.90;;
60999;SDS011;46879;45.658;11.814;2022-08-03T13:12:23;3.72;;;1.52;;
60999;SDS011;46879;45.658;11.814;2022-08-03T13:17:26;4.13;;;2.00;;
60999;SDS011;46879;45.658;11.814;2022-08-03T13:22:27;3.45;;;1.88;;
60999;SDS011;46879;45.658;11.814;2022-08-03T13:27:28;2.88;;;1.88;;
60999;SDS011;46879;45.658;11.814;2022-08-03T13:32:29;5.13;;;2.20;;
60999;SDS011;46879;45.658;11.814;2022-08-03T13:37:30;6.07;;;1.98;;
60999;SDS011;46879;45.658;11.814;2022-08-03T13:42:31;5.70;;;1.88;;
60999;SDS011;46879;45.658;11.814;2022-08-03T13:47:33;3.78;;;1.90;;
60999;SDS011;46879;45.658;11.814;2022-08-03T13:52:34;3.20;;;1.98;;
60999;SDS011;46879;45.658;11.814;2022-08-03T13:57:35;3.53;;;1.70;;
60999;SDS011;46879;45.658;11.814;2022-08-03T14:02:36;4.75;;;1.90;;
60999;SDS011;46879;45.658;11.814;2022-08-03T14:07:37;2.80;;;1.60;;
60999;SDS011;46879;45.658;11.814;2022-08-03T14:12:37;2.90;;;1.83;;
60999;SDS011;46879;45.658;11.814;2022-08-03T14:17:38;3.03;;;1.70;;
60999;SDS011;46879;45.658;11.814;2022-08-03T14:22:39;1.92;;;1.60;;
60999;SDS011;46879;45.658;11.814;2022-08-03T14:27:39;3.60;;;1.60;;
60999;SDS011;46879;45.658;11.814;2022-08-03T14:32:40;3.38;;;1.90;;
60999;SDS011;46879;45.658;11.814;2022-08-03T14:37:41;11.07;;;2.53;;
60999;SDS011;46879;45.658;11.814;2022-08-03T14:42:41;15.52;;;2.47;;
60999;SDS011;46879;45.658;11.814;2022-08-03T14:47:43;14.80;;;2.22;;
60999;SDS011;46879;45.658;11.814;2022-08-03T14:52:45;14.38;;;2.30;;
60999;SDS011;46879;45.658;11.814;2022-08-03T14:57:45;6.03;;;2.42;;
60999;SDS011;46879;45.658;11.814;2022-08-03T15:02:46;7.55;;;2.33;;
60999;SDS011;46879;45.658;11.814;2022-08-03T15:07:47;9.05;;;2.00;;
60999;SDS011;46879;45.658;11.814;2022-08-03T15:12:47;3.63;;;1.60;;
60999;SDS011;46879;45.658;11.814;2022-08-03T15:17:48;2.33;;;1.55;;
60999;SDS011;46879;45.658;11.814;2022-08-03T15:22:48;2.70;;;1.77;;
60999;SDS011;46879;45.658;11.814;2022-08-03T15:27:49;6.28;;;1.80;;
60999;SDS011;46879;45.658;11.814;2022-08-03T15:32:49;3.80;;;2.05;;
60999;SDS011;46879;45.658;11.814;2022-08-03T15:37:50;2.35;;;1.60;;
60999;SDS011;46879;45.658;11.814;2022-08-03T15:42:51;6.28;;;2.00;;
60999;SDS011;46879;45.658;11.814;2022-08-03T15:47:51;7.32;;;2.10;;
60999;SDS011;46879;45.658;11.814;2022-08-03T15:52:52;6.82;;;1.98;;
60999;SDS011;46879;45.658;11.814;2022-08-03T15:57:55;12.15;;;2.85;;
60999;SDS011;46879;45.658;11.814;2022-08-03T16:02:56;5.10;;;2.17;;
60999;SDS011;46879;45.658;11.814;2022-08-03T16:07:57;6.50;;;1.98;;
60999;SDS011;46879;45.658;11.814;2022-08-03T16:12:57;8.13;;;2.28;;
60999;SDS011;46879;45.658;11.814;2022-08-03T16:17:58;5.07;;;2.15;;
60999;SDS011;46879;45.658;11.814;2022-08-03T16:22:59;6.68;;;2.53;;
60999;SDS011;46879;45.658;11.814;2022-08-03T16:28:01;6.15;;;2.00;;
60999;SDS011;46879;45.658;11.814;2022-08-03T16:33:01;7.65;;;2.22;;
60999;SDS011;46879;45.658;11.814;2022-08-03T16:38:03;2.53;;;1.52;;
60999;SDS011;46879;45.658;11.814;2022-08-03T16:43:11;7.15;;;1.98;;
60999;SDS011;46879;45.658;11.814;2022-08-03T16:48:14;3.58;;;1.70;;
60999;SDS011;46879;45.658;11.814;2022-08-03T16:53:15;7.68;;;1.95;;
60999;SDS011;46879;45.658;11.814;2022-08-03T16:58:16;3.22;;;1.90;;
60999;SDS011;46879;45.658;11.814;2022-08-03T17:03:18;2.25;;;2.05;;
60999;SDS011;46879;45.658;11.814;2022-08-03T17:08:20;3.88;;;1.60;;
60999;SDS011;46879;45.658;11.814;2022-08-03T17:13:21;7.13;;;1.83;;
60999;SDS011;46879;45.658;11.814;2022-08-03T17:18:21;2.15;;;1.50;;
60999;SDS011;46879;45.658;11.814;2022-08-03T17:23:27;3.25;;;1.83;;
60999;SDS011;46879;45.658;11.814;2022-08-03T17:29:01;5.50;;;1.60;;
60999;SDS011;46879;45.658;11.814;2022-08-03T17:34:04;1.95;;;1.35;;
60999;SDS011;46879;45.658;11.814;2022-08-03T17:39:05;2.65;;;1.38;;
60999;SDS011;46879;45.658;11.814;2022-08-03T17:44:06;3.20;;;1.60;;
60999;SDS011;46879;45.658;11.814;2022-08-03T17:49:07;1.65;;;1.50;;
60999;SDS011;46879;45.658;11.814;2022-08-03T17:54:15;1.58;;;1.33;;
60999;SDS011;46879;45.658;11.814;2022-08-03T17:59:27;1.30;;;1.20;;
60999;SDS011;46879;45.658;11.814;2022-08-03T18:04:29;1.70;;;1.60;;
60999;SDS011;46879;45.658;11.814;2022-08-03T18:09:37;4.38;;;1.70;;
60999;SDS011;46879;45.658;11.814;2022-08-03T18:14:48;2.15;;;1.60;;
60999;SDS011;46879;45.658;11.814;2022-08-03T18:19:58;3.42;;;1.60;;
60999;SDS011;46879;45.658;11.814;2022-08-03T18:24:59;5.43;;;1.63;;
60999;SDS011;46879;45.658;11.814;2022-08-03T18:30:03;6.50;;;1.88;;
60999;SDS011;46879;45.658;11.814;2022-08-03T18:35:05;5.38;;;1.85;;
60999;SDS011;46879;45.658;11.814;2022-08-03T18:40:06;3.65;;;1.98;;
60999;SDS011;46879;45.658;11.814;2022-08-03T18:45:07;6.85;;;1.98;;
60999;SDS011;46879;45.658;11.814;2022-08-03T18:50:11;14.70;;;2.10;;
60999;SDS011;46879;45.658;11.814;2022-08-03T19:00:59;10.05;;;1.35;;
60999;SDS011;46879;45.658;11.814;2022-08-03T19:06:16;5.88;;;1.73;;
60999;SDS011;46879;45.658;11.814;2022-08-03T19:11:23;8.60;;;1.77;;
60999;SDS011;46879;45.658;11.814;2022-08-03T19:16:36;8.43;;;1.60;;
60999;SDS011;46879;45.658;11.814;2022-08-03T19:21:40;4.93;;;1.55;;
60999;SDS011;46879;45.658;11.814;2022-08-03T19:26:43;13.80;;;1.58;;
60999;SDS011;46879;45.658;11.814;2022-08-03T19:31:46;2.75;;;1.35;;
60999;SDS011;46879;45.658;11.814;2022-08-03T19:36:48;5.43;;;1.77;;
60999;SDS011;46879;45.658;11.814;2022-08-03T19:41:50;2.95;;;1.33;;
60999;SDS011;46879;45.658;11.814;2022-08-03T19:47:08;2.60;;;1.30;;
60999;SDS011;46879;45.658;11.814;2022-08-03T19:52:14;1.83;;;1.10;;
60999;SDS011;46879;45.658;11.814;2022-08-03T19:57:18;2.60;;;1.10;;
60999;SDS011;46879;45.658;11.814;2022-08-03T20:02:23;3.72;;;1.70;;
60999;SDS011;46879;45.658;11.814;2022-08-03T20:07:24;3.67;;;1.20;;
60999;SDS011;46879;45.658;11.814;2022-08-03T20:12:28;1.63;;;1.00;;
60999;SDS011;46879;45.658;11.814;2022-08-03T20:17:29;4.47;;;1.15;;
60999;SDS011;46879;45.658;11.814;2022-08-03T20:22:33;2.85;;;1.30;;
60999;SDS011;46879;45.658;11.814;2022-08-03T20:27:45;2.80;;;1.10;;
60999;SDS011;46879;45.658;11.814;2022-08-03T20:32:46;1.58;;;1.23;;
60999;SDS011;46879;45.658;11.814;2022-08-03T20:37:46;6.45;;;1.38;;
60999;SDS011;46879;45.658;11.814;2022-08-03T20:42:47;1.88;;;1.05;;
60999;SDS011;46879;45.658;11.814;2022-08-03T20:47:48;4.50;;;1.27;;
60999;SDS011;46879;45.658;11.814;2022-08-03T20:52:49;2.47;;;1.48;;
60999;SDS011;46879;45.658;11.814;2022-08-03T20:57:49;3.55;;;1.42;;
60999;SDS011;46879;45.658;11.814;2022-08-03T21:02:52;3.03;;;1.63;;
60999;SDS011;46879;45.658;11.814;2022-08-03T21:07:53;3.40;;;1.60;;
60999;SDS011;46879;45.658;11.814;2022-08-03T21:13:06;5.22;;;1.42;;
60999;SDS011;46879;45.658;11.814;2022-08-03T21:18:16;7.82;;;1.58;;
60999;SDS011;46879;45.658;11.814;2022-08-03T21:23:18;3.95;;;1.65;;
60999;SDS011;46879;45.658;11.814;2022-08-03T21:28:20;9.32;;;2.03;;
60999;SDS011;46879;45.658;11.814;2022-08-03T21:33:26;2.92;;;1.48;;
60999;SDS011;46879;45.658;11.814;2022-08-03T21:38:28;4.90;;;1.92;;
60999;SDS011;46879;45.658;11.814;2022-08-03T21:43:29;3.22;;;1.80;;
60999;SDS011;46879;45.658;11.814;2022-08-03T21:48:34;4.18;;;1.60;;
60999;SDS011;46879;45.658;11.814;2022-08-03T21:53:37;4.68;;;2.00;;
60999;SDS011;46879;45.658;11.814;2022-08-03T21:59:21;4.15;;;1.98;;
60999;SDS011;46879;45.658;11.814;2022-08-03T22:04:05;6.13;;;1.95;;
60999;SDS011;46879;45.658;11.814;2022-08-03T22:09:07;5.05;;;1.85;;
60999;SDS011;46879;45.658;11.814;2022-08-03T22:14:07;3.28;;;2.00;;
60999;SDS011;46879;45.658;11.814;2022-08-03T22:19:08;3.05;;;2.00;;
60999;SDS011;46879;45.658;11.814;2022-08-03T22:24:10;4.10;;;1.75;;
60999;SDS011;46879;45.658;11.814;2022-08-03T22:29:10;3.80;;;1.60;;
60999;SDS011;46879;45.658;11.814;2022-08-03T22:34:11;4.13;;;1.70;;
60999;SDS011;46879;45.658;11.814;2022-08-03T22:39:12;4.60;;;2.10;;
60999;SDS011;46879;45.658;11.814;2022-08-03T22:44:13;1.63;;;1.52;;
60999;SDS011;46879;45.658;11.814;2022-08-03T22:49:14;2.53;;;1.60;;
60999;SDS011;46879;45.658;11.814;2022-08-03T22:54:16;5.18;;;1.63;;
60999;SDS011;46879;45.658;11.814;2022-08-03T22:59:17;2.88;;;1.80;;
60999;SDS011;46879;45.658;11.814;2022-08-03T23:04:18;5.00;;;1.60;;
60999;SDS011;46879;45.658;11.814;2022-08-03T23:09:19;2.90;;;1.60;;
60999;SDS011;46879;45.658;11.814;2022-08-03T23:14:23;5.25;;;2.00;;
60999;SDS011;46879;45.658;11.814;2022-08-03T23:19:27;1.60;;;1.50;;
60999;SDS011;46879;45.658;11.814;2022-08-03T23:24:28;2.20;;;1.38;;
60999;SDS011;46879;45.658;11.814;2022-08-03T23:29:35;7.82;;;1.92;;
60999;SDS011;46879;45.658;11.814;2022-08-03T23:34:38;11.23;;;2.03;;
60999;SDS011;46879;45.658;11.814;2022-08-03T23:39:58;23.40;;;2.83;;
60999;SDS011;46879;45.658;11.814;2022-08-03T23:45:00;6.95;;;2.10;;
60999;SDS011;46879;45.658;11.814;2022-08-03T23:50:02;11.68;;;1.85;;
60999;SDS011;46879;45.658;11.814;2022-08-03T23:55:20;4.15;;;2.00;;
